createdAt,value
2022-07-28T00:01:50.207Z,100496.39
2022-07-28T00:04:18.259Z,100496.66
2022-07-28T00:06:46.319Z,100501.42
2022-07-28T00:09:14.594Z,100504.30
2022-07-28T00:11:54.425Z,100502.05
2022-07-28T00:14:24.355Z,100498.50
2022-07-28T00:16:52.659Z,100497.17
2022-07-28T00:19:20.835Z,100498.00
2022-07-28T00:21:48.920Z,100498.02
2022-07-28T00:24:17.342Z,100495.19
2022-07-28T00:26:46.785Z,100500.55
2022-07-28T00:29:15.243Z,100505.11
2022-07-28T00:31:43.433Z,100506.48
2022-07-28T00:34:12.595Z,100508.92
2022-07-28T00:36:41.106Z,100510.26
2022-07-28T00:39:09.390Z,100507.89
2022-07-28T00:41:37.515Z,100507.52
2022-07-28T00:44:08.023Z,100507.25
2022-07-28T00:46:36.971Z,100510.95
2022-07-28T00:49:05.949Z,100515.18
2022-07-28T00:51:34.430Z,100515.09
2022-07-28T00:54:04.519Z,100514.25
2022-07-28T00:56:34.672Z,100513.73
2022-07-28T00:59:02.697Z,100513.81
2022-07-28T01:01:30.726Z,100514.94
2022-07-28T01:04:02.347Z,100516.23
2022-07-28T01:07:03.424Z,100518.92
2022-07-28T01:09:50.039Z,100522.20
2022-07-28T01:12:57.033Z,100523.51
2022-07-28T01:15:33.574Z,100520.88
2022-07-28T01:18:17.226Z,100524.50
2022-07-28T01:20:55.559Z,100524.70
2022-07-28T01:23:32.257Z,100526.33
2022-07-28T01:26:24.336Z,100529.50
2022-07-28T01:29:16.522Z,100526.83
2022-07-28T01:32:08.755Z,100525.77
2022-07-28T01:34:52.309Z,100526.05
2022-07-28T01:37:25.856Z,100527.29
2022-07-28T01:39:59.166Z,100527.58
2022-07-28T01:42:37.262Z,100522.81
2022-07-28T01:45:08.340Z,100524.14
2022-07-28T01:47:37.731Z,100519.60
2022-07-28T01:50:10.471Z,100522.05
2022-07-28T01:52:42.050Z,100519.05
2022-07-28T01:55:14.031Z,100519.11
2022-07-28T01:57:44.475Z,100516.73
2022-07-28T02:00:14.339Z,100516.83
2022-07-28T02:02:46.286Z,100516.89
2022-07-28T02:05:19.285Z,100515.58
2022-07-28T02:07:51.631Z,100515.58
2022-07-28T02:10:22.074Z,100516.61
2022-07-28T02:12:53.328Z,100512.64
2022-07-28T02:15:22.545Z,100516.83
2022-07-28T02:17:53.756Z,100518.89
2022-07-28T02:20:23.630Z,100519.97
2022-07-28T02:22:54.460Z,100522.48
2022-07-28T02:25:22.704Z,100524.36
2022-07-28T02:28:05.611Z,100521.41
2022-07-28T02:30:48.160Z,100520.56
2022-07-28T02:33:57.963Z,100520.80
2022-07-28T02:36:16.199Z,100525.56
2022-07-28T02:38:51.967Z,100523.30
2022-07-28T02:41:27.509Z,100529.36
2022-07-28T02:44:00.158Z,100529.39
2022-07-28T02:46:38.434Z,100527.58
2022-07-28T02:49:12.501Z,100531.14
2022-07-28T02:51:43.416Z,100533.95
2022-07-28T02:54:13.710Z,100540.20
2022-07-28T02:56:42.457Z,100538.62
2022-07-28T02:59:23.735Z,100536.77
2022-07-28T03:01:53.132Z,100536.26
2022-07-28T03:04:43.515Z,100541.71
2022-07-28T03:07:11.873Z,100541.78
2022-07-28T03:09:42.576Z,100540.66
2022-07-28T03:12:11.667Z,100539.95
2022-07-28T03:14:40.250Z,100538.91
2022-07-28T03:17:09.457Z,100543.67
2022-07-28T03:19:37.636Z,100549.66
2022-07-28T03:22:10.370Z,100557.50
2022-07-28T03:24:44.584Z,100566.56
2022-07-28T03:27:33.295Z,100570.73
2022-07-28T03:30:07.259Z,100573.30
2022-07-28T03:32:38.767Z,100577.48
2022-07-28T03:35:07.186Z,100577.33
2022-07-28T03:38:06.399Z,100579.97
2022-07-28T03:40:37.954Z,100583.43
2022-07-28T03:43:08.918Z,100583.98
2022-07-28T03:45:41.081Z,100587.56
2022-07-28T03:48:10.404Z,100587.60
2022-07-28T03:50:38.475Z,100586.57
2022-07-28T03:53:14.077Z,100586.23
2022-07-28T03:55:42.156Z,100585.15
2022-07-28T03:58:10.116Z,100588.97
2022-07-28T04:00:38.179Z,100593.82
2022-07-28T04:03:42.322Z,100593.77
2022-07-28T04:05:58.028Z,100592.64
2022-07-28T04:08:26.038Z,100596.73
2022-07-28T04:10:53.991Z,100597.42
2022-07-28T04:13:22.005Z,100591.74
2022-07-28T04:15:50.037Z,100593.35
2022-07-28T04:18:18.821Z,100596.17
2022-07-28T04:20:46.937Z,100596.42
2022-07-28T04:23:14.799Z,100600.50
2022-07-28T04:25:42.906Z,100601.38
2022-07-28T04:28:10.970Z,100603.41
2022-07-28T04:30:43.896Z,100609.09
2022-07-28T04:33:13.032Z,100612.92
2022-07-28T04:35:41.055Z,100610.92
2022-07-28T04:38:09.183Z,100608.65
2022-07-28T04:40:37.274Z,100612.96
2022-07-28T04:43:06.217Z,100612.53
2022-07-28T04:45:34.572Z,100610.90
2022-07-28T04:48:02.891Z,100613.80
2022-07-28T04:50:30.967Z,100614.34
2022-07-28T04:52:59.529Z,100617.10
2022-07-28T04:55:27.751Z,100612.90
2022-07-28T04:57:55.851Z,100610.73
2022-07-28T05:00:24.018Z,100614.50
2022-07-28T05:05:44.076Z,100616.15
2022-07-28T05:08:17.082Z,100616.73
2022-07-28T05:10:46.001Z,100618.04
2022-07-28T05:13:13.927Z,100617.77
2022-07-28T05:15:49.784Z,100621.46
2022-07-28T05:18:17.839Z,100619.72
2022-07-28T05:20:45.758Z,100617.63
2022-07-28T05:23:13.672Z,100616.54
2022-07-28T05:25:41.591Z,100619.12
2022-07-28T05:28:09.592Z,100622.80
2022-07-28T05:30:38.565Z,100624.77
2022-07-28T05:33:06.449Z,100628.17
2022-07-28T05:35:34.452Z,100632.33
2022-07-28T05:38:03.670Z,100632.55
2022-07-28T05:40:33.645Z,100635.34
2022-07-28T05:43:01.587Z,100636.13
2022-07-28T05:45:29.688Z,100638.42
2022-07-28T05:47:57.593Z,100644.31
2022-07-28T05:50:26.695Z,100644.09
2022-07-28T05:52:54.778Z,100650.11
2022-07-28T05:55:22.943Z,100648.60
2022-07-28T05:57:51.329Z,100652.59
2022-07-28T06:00:21.247Z,100653.65
2022-07-28T06:02:50.697Z,100657.89
2022-07-28T06:05:21.606Z,100660.89
2022-07-28T06:07:51.804Z,100663.52
2022-07-28T06:10:25.372Z,100667.41
2022-07-28T06:12:55.346Z,100668.46
2022-07-28T06:15:25.919Z,100670.21
2022-07-28T06:17:58.206Z,100669.98
2022-07-28T06:20:28.874Z,100668.48
2022-07-28T06:22:56.851Z,100672.66
2022-07-28T06:25:27.736Z,100676.43
2022-07-28T06:27:57.817Z,100675.34
2022-07-28T06:30:27.432Z,100676.71
2022-07-28T06:32:56.765Z,100683.82
2022-07-28T06:35:27.944Z,100685.43
2022-07-28T06:37:56.071Z,100683.20
2022-07-28T06:40:24.721Z,100684.29
2022-07-28T06:42:52.697Z,100691.11
2022-07-28T06:45:21.806Z,100692.59
2022-07-28T06:47:50.946Z,100695.98
2022-07-28T06:50:26.510Z,100699.10
2022-07-28T06:52:59.106Z,100702.70
2022-07-28T06:55:31.325Z,100697.59
2022-07-28T06:58:06.371Z,100693.54
2022-07-28T07:00:34.604Z,100701.14
2022-07-28T07:03:09.616Z,100699.73
2022-07-28T07:05:40.662Z,100705.02
2022-07-28T07:08:08.682Z,100705.41
2022-07-28T07:10:36.670Z,100705.42
2022-07-28T07:13:05.059Z,100706.73
2022-07-28T07:15:34.959Z,100704.26
2022-07-28T07:18:07.709Z,100706.13
2022-07-28T07:20:36.480Z,100706.70
2022-07-28T07:23:07.619Z,100707.69
2022-07-28T07:25:41.533Z,100706.85
2022-07-28T07:28:11.967Z,100707.61
2022-07-28T07:30:40.316Z,100708.65
2022-07-28T07:33:10.906Z,100704.56
2022-07-28T07:35:39.101Z,100709.65
2022-07-28T07:38:07.466Z,100708.08
2022-07-28T07:40:35.750Z,100712.09
2022-07-28T07:43:04.700Z,100714.19
2022-07-28T07:45:34.517Z,100722.44
2022-07-28T07:48:03.909Z,100720.15
2022-07-28T07:50:38.906Z,100721.62
2022-07-28T07:53:07.156Z,100716.87
2022-07-28T07:55:37.961Z,100724.05
2022-07-28T07:58:06.546Z,100724.58
2022-07-28T08:00:34.675Z,100726.92
2022-07-28T08:03:02.835Z,100725.48
2022-07-28T08:05:35.511Z,100726.74
2022-07-28T08:08:05.687Z,100725.63
2022-07-28T08:10:37.921Z,100729.34
2022-07-28T08:13:08.001Z,100733.45
2022-07-28T08:15:36.057Z,100741.30
2022-07-28T08:18:04.890Z,100737.96
2022-07-28T08:20:32.989Z,100738.52
2022-07-28T08:23:01.371Z,100736.70
2022-07-28T08:25:29.290Z,100731.98
2022-07-28T08:27:57.238Z,100733.61
2022-07-28T08:30:30.265Z,100731.16
2022-07-28T08:33:02.534Z,100727.80
2022-07-28T08:35:33.501Z,100725.09
2022-07-28T08:38:04.597Z,100729.55
2022-07-28T08:40:32.995Z,100722.94
2022-07-28T08:43:21.217Z,100724.47
2022-07-28T08:45:52.504Z,100728.27
2022-07-28T08:48:23.730Z,100732.17
2022-07-28T08:50:54.088Z,100730.72
2022-07-28T08:53:30.697Z,100733.80
2022-07-28T08:56:05.851Z,100732.38
2022-07-28T08:58:36.802Z,100731.11
2022-07-28T09:01:08.645Z,100735.13
2022-07-28T09:03:39.277Z,100741.52
2022-07-28T09:06:08.470Z,100737.65
2022-07-28T09:08:37.340Z,100735.52
2022-07-28T09:11:07.027Z,100735.80
2022-07-28T09:13:36.545Z,100735.09
2022-07-28T09:16:06.923Z,100737.29
2022-07-28T09:18:35.208Z,100739.58
2022-07-28T09:21:03.221Z,100743.02
2022-07-28T09:23:48.944Z,100740.09
2022-07-28T09:26:18.661Z,100737.24
2022-07-28T09:28:59.279Z,100745.16
2022-07-28T09:31:29.408Z,100743.23
2022-07-28T09:34:02.654Z,100739.77
2022-07-28T09:36:39.202Z,100733.17
2022-07-28T09:39:08.403Z,100733.60
2022-07-28T09:41:53.386Z,100737.17
2022-07-28T09:44:23.375Z,100732.27
2022-07-28T09:46:51.512Z,100735.65
2022-07-28T09:49:22.887Z,100734.74
2022-07-28T09:52:02.750Z,100740.27
2022-07-28T09:54:30.756Z,100746.77
2022-07-28T09:56:59.416Z,100747.56
2022-07-28T09:59:46.194Z,100745.91
2022-07-28T10:02:24.960Z,100744.30
2022-07-28T10:04:54.629Z,100745.42
2022-07-28T10:07:22.775Z,100746.30
2022-07-28T10:10:01.016Z,100752.26
2022-07-28T10:12:31.599Z,100748.93
2022-07-28T10:15:34.839Z,100744.52
2022-07-28T10:18:03.728Z,100749.23
2022-07-28T10:20:34.760Z,100747.44
2022-07-28T10:23:09.566Z,100749.59
2022-07-28T10:25:40.597Z,100742.48
2022-07-28T10:28:12.069Z,100743.14
2022-07-28T10:30:41.448Z,100746.51
2022-07-28T10:33:15.186Z,100746.04
2022-07-28T10:35:54.769Z,100743.09
2022-07-28T10:38:28.806Z,100741.61
2022-07-28T10:40:59.821Z,100745.02
2022-07-28T10:43:32.849Z,100745.60
2022-07-28T10:46:06.833Z,100751.14
2022-07-28T10:48:39.251Z,100738.37
2022-07-28T10:51:07.672Z,100737.08
2022-07-28T10:53:39.512Z,100731.23
2022-07-28T10:56:18.869Z,100740.63
2022-07-28T10:59:04.696Z,100745.95
2022-07-28T11:01:51.913Z,100739.48
2022-07-28T11:04:52.023Z,100735.35
2022-07-28T11:07:21.177Z,100740.89
2022-07-28T11:09:50.135Z,100736.70
2022-07-28T11:12:48.885Z,100740.39
2022-07-28T11:15:38.101Z,100741.36
2022-07-28T11:18:10.840Z,100732.50
2022-07-28T11:20:51.625Z,100725.04
2022-07-28T11:23:58.369Z,100730.77
2022-07-28T11:26:31.102Z,100740.88
2022-07-28T11:29:06.016Z,100744.48
2022-07-28T11:31:48.784Z,100740.92
2022-07-28T11:34:23.707Z,100744.84
2022-07-28T11:37:01.621Z,100738.77
2022-07-28T11:39:43.867Z,100736.75
2022-07-28T11:42:29.481Z,100727.91
2022-07-28T11:45:23.125Z,100725.45
2022-07-28T11:48:17.103Z,100721.42
2022-07-28T11:51:14.328Z,100726.38
2022-07-28T11:53:48.494Z,100723.52
2022-07-28T11:56:24.472Z,100719.26
2022-07-28T11:59:07.230Z,100718.13
2022-07-28T12:01:37.094Z,100718.68
2022-07-28T12:04:19.099Z,100718.95
2022-07-28T12:06:51.660Z,100727.88
2022-07-28T12:09:25.617Z,100720.41
2022-07-28T12:11:56.098Z,100715.70
2022-07-28T12:14:24.401Z,100710.65
2022-07-28T12:16:53.263Z,100711.59
2022-07-28T12:19:21.879Z,100706.92
2022-07-28T12:21:55.354Z,100707.51
2022-07-28T12:24:29.617Z,100710.66
2022-07-28T12:27:00.564Z,100706.32
2022-07-28T12:29:32.219Z,100708.70
2022-07-28T12:32:06.722Z,100702.60
2022-07-28T12:34:35.698Z,100702.73
2022-07-28T12:37:12.592Z,100701.15
2022-07-28T12:39:43.023Z,100707.35
2022-07-28T12:42:12.864Z,100709.53
2022-07-28T12:44:44.081Z,100711.05
2022-07-28T12:47:14.391Z,100713.02
2022-07-28T12:49:44.829Z,100709.41
2022-07-28T12:52:22.311Z,100705.90
2022-07-28T12:54:55.226Z,100706.02
2022-07-28T12:57:50.538Z,100705.27
2022-07-28T13:00:31.906Z,100704.12
2022-07-28T13:03:19.581Z,100692.65
2022-07-28T13:06:03.425Z,100699.60
2022-07-28T13:08:44.008Z,100702.29
2022-07-28T13:14:12.946Z,100692.98
2022-07-28T13:16:41.206Z,100693.27
2022-07-28T13:19:21.538Z,100691.65
2022-07-28T13:22:01.690Z,100689.20
2022-07-28T13:24:31.593Z,100694.12
2022-07-28T13:27:01.754Z,100694.15
2022-07-28T13:29:34.889Z,100697.52
2022-07-28T13:32:03.017Z,100698.21
2022-07-28T13:34:31.110Z,100695.84
2022-07-28T13:36:59.226Z,100692.69
2022-07-28T13:39:27.995Z,100694.77
2022-07-28T13:41:58.178Z,100701.16
2022-07-28T13:44:28.878Z,100703.70
2022-07-28T13:46:59.736Z,100698.25
2022-07-28T13:49:33.297Z,100695.00
2022-07-28T13:52:02.416Z,100698.79
2022-07-28T13:54:30.417Z,100697.13
2022-07-28T13:57:14.216Z,100692.25
2022-07-28T13:59:43.829Z,100692.30
2022-07-28T14:02:15.159Z,100690.40
2022-07-28T14:04:49.002Z,100698.78
2022-07-28T14:07:20.826Z,100690.05
2022-07-28T14:09:52.805Z,100688.30
2022-07-28T14:12:22.490Z,100688.48
2022-07-28T14:14:53.084Z,100693.04
2022-07-28T14:17:43.718Z,100695.42
2022-07-28T14:20:12.302Z,100688.59
2022-07-28T14:22:40.398Z,100686.08
2022-07-28T14:25:09.000Z,100685.83
2022-07-28T14:27:38.031Z,100687.95
2022-07-28T14:30:07.047Z,100688.97
2022-07-28T14:32:38.758Z,100691.80
2022-07-28T14:35:07.411Z,100690.23
2022-07-28T14:37:55.031Z,100693.88
2022-07-28T14:40:24.187Z,100697.67
2022-07-28T14:42:52.099Z,100694.29
2022-07-28T14:45:20.045Z,100694.89
2022-07-28T14:47:47.966Z,100695.00
2022-07-28T14:50:15.951Z,100690.16
2022-07-28T14:52:45.053Z,100688.45
2022-07-28T14:55:13.834Z,100684.59
2022-07-28T14:57:50.231Z,100685.25
2022-07-28T15:00:22.206Z,100688.11
2022-07-28T15:02:51.953Z,100688.20
2022-07-28T15:05:21.111Z,100690.65
2022-07-28T15:07:52.357Z,100687.25
2022-07-28T15:10:21.548Z,100685.68
2022-07-28T15:12:50.919Z,100690.67
2022-07-28T15:15:21.388Z,100694.30
2022-07-28T15:17:49.241Z,100687.80
2022-07-28T15:20:17.227Z,100687.98
2022-07-28T15:22:45.116Z,100685.77
2022-07-28T15:25:13.099Z,100689.21
2022-07-28T15:27:45.625Z,100693.45
2022-07-28T15:30:14.395Z,100700.98
2022-07-28T15:32:54.591Z,100708.13
2022-07-28T15:35:26.195Z,100711.05
2022-07-28T15:37:55.068Z,100708.95
2022-07-28T15:40:23.490Z,100707.80
2022-07-28T15:42:53.232Z,100705.02
2022-07-28T15:45:21.197Z,100700.05
2022-07-28T15:47:49.222Z,100697.07
2022-07-28T15:50:17.335Z,100695.85
2022-07-28T15:52:45.396Z,100684.16
2022-07-28T15:55:13.436Z,100683.02
2022-07-28T15:57:41.302Z,100680.17
2022-07-28T16:00:09.871Z,100675.86
2022-07-28T16:02:37.775Z,100670.20
2022-07-28T16:05:06.089Z,100667.94
2022-07-28T16:07:35.361Z,100670.48
2022-07-28T16:10:04.711Z,100671.10
2022-07-28T16:12:33.646Z,100673.33
2022-07-28T16:15:02.029Z,100669.02
2022-07-28T16:17:30.022Z,100667.15
2022-07-28T16:20:02.426Z,100667.63
2022-07-28T16:22:30.783Z,100667.54
2022-07-28T16:24:58.662Z,100667.79
2022-07-28T16:27:26.540Z,100669.92
2022-07-28T16:29:54.793Z,100672.61
2022-07-28T16:32:22.802Z,100670.16
2022-07-28T16:34:54.964Z,100671.25
2022-07-28T16:37:22.961Z,100668.63
2022-07-28T16:39:51.041Z,100667.92
2022-07-28T16:42:19.036Z,100664.74
2022-07-28T16:44:47.575Z,100664.06
2022-07-28T16:47:16.009Z,100662.41
2022-07-28T16:49:46.199Z,100663.38
2022-07-28T16:52:15.519Z,100660.17
2022-07-28T16:54:43.767Z,100660.27
2022-07-28T16:57:12.557Z,100656.35
2022-07-28T16:59:48.732Z,100651.55
2022-07-28T17:02:19.441Z,100651.89
2022-07-28T17:04:47.889Z,100651.74
2022-07-28T17:07:15.898Z,100653.14
2022-07-28T17:09:44.645Z,100650.82
2022-07-28T17:12:13.470Z,100652.88
2022-07-28T17:14:41.438Z,100649.77
2022-07-28T17:17:09.601Z,100650.48
2022-07-28T17:19:41.996Z,100651.17
2022-07-28T17:22:15.264Z,100651.36
2022-07-28T17:24:43.252Z,100651.35
2022-07-28T17:29:59.066Z,100653.88
2022-07-28T17:32:26.976Z,100653.77
2022-07-28T17:34:55.770Z,100655.23
2022-07-28T17:37:23.605Z,100656.98
2022-07-28T17:39:51.741Z,100660.89
2022-07-28T17:42:19.839Z,100660.20
2022-07-28T17:44:48.883Z,100660.14
2022-07-28T17:47:17.105Z,100660.14
2022-07-28T17:49:45.726Z,100660.95
2022-07-28T17:52:13.711Z,100660.90
2022-07-28T17:55:00.718Z,100666.72
2022-07-28T17:57:31.018Z,100670.52
2022-07-28T18:00:06.864Z,100673.20
2022-07-28T18:02:34.780Z,100670.56
2022-07-28T18:05:02.704Z,100670.82
2022-07-28T18:07:30.762Z,100669.23
2022-07-28T18:10:24.532Z,100672.09
2022-07-28T18:12:52.948Z,100673.73
2022-07-28T18:15:20.854Z,100674.69
2022-07-28T18:17:55.230Z,100676.08
2022-07-28T18:20:24.483Z,100673.61
2022-07-28T18:22:52.477Z,100678.50
2022-07-28T18:25:21.355Z,100679.88
2022-07-28T18:27:49.426Z,100680.05
2022-07-28T18:30:18.215Z,100681.16
2022-07-28T18:32:46.181Z,100683.04
2022-07-28T18:35:14.945Z,100686.80
2022-07-28T18:37:45.962Z,100685.97
2022-07-28T18:40:16.403Z,100684.53
2022-07-28T18:42:46.452Z,100688.89
2022-07-28T18:45:15.503Z,100691.48
2022-07-28T18:47:46.209Z,100690.65
2022-07-28T18:50:30.462Z,100691.09
2022-07-28T18:53:00.090Z,100695.02
2022-07-28T18:55:28.147Z,100698.80
2022-07-28T18:57:56.378Z,100697.98
2022-07-28T19:00:24.432Z,100704.05
2022-07-28T19:02:52.864Z,100701.92
2022-07-28T19:05:20.910Z,100705.73
2022-07-28T19:07:48.877Z,100707.73
2022-07-28T19:10:16.821Z,100704.41
2022-07-28T19:12:47.088Z,100709.86
2022-07-28T19:15:15.051Z,100707.26
2022-07-28T19:17:42.976Z,100708.66
2022-07-28T19:20:12.122Z,100710.35
2022-07-28T19:22:40.569Z,100705.23
2022-07-28T19:25:09.031Z,100707.10
2022-07-28T19:27:37.426Z,100705.36
2022-07-28T19:30:07.582Z,100706.11
2022-07-28T19:32:35.859Z,100707.24
2022-07-28T19:35:04.286Z,100708.81
2022-07-28T19:37:32.463Z,100704.58
2022-07-28T19:40:00.254Z,100701.33
2022-07-28T19:42:30.524Z,100702.73
2022-07-28T19:44:58.466Z,100700.95
2022-07-28T19:47:26.438Z,100700.12
2022-07-28T19:49:54.346Z,100703.59
2022-07-28T19:52:24.157Z,100704.69
2022-07-28T19:54:52.876Z,100705.84
2022-07-28T19:57:23.298Z,100707.98
2022-07-28T19:59:51.164Z,100708.16
2022-07-28T20:02:19.175Z,100709.08
2022-07-28T20:04:47.176Z,100710.45
2022-07-28T20:07:15.309Z,100713.67
2022-07-28T20:09:43.218Z,100712.74
2022-07-28T20:12:11.256Z,100714.33
2022-07-28T20:14:39.186Z,100721.61
2022-07-28T20:17:07.494Z,100718.48
2022-07-28T20:19:35.527Z,100720.92
2022-07-28T20:22:03.500Z,100722.08
2022-07-28T20:24:31.433Z,100723.33
2022-07-28T20:27:01.207Z,100722.80
2022-07-28T20:29:29.086Z,100724.99
2022-07-28T20:31:56.978Z,100724.14
2022-07-28T20:34:24.898Z,100726.17
2022-07-28T20:36:54.506Z,100724.39
2022-07-28T20:39:43.749Z,100724.83
2022-07-28T20:42:10.847Z,100725.23
2022-07-28T20:44:38.969Z,100730.58
2022-07-28T20:47:07.053Z,100732.65
2022-07-28T20:49:34.976Z,100731.11
2022-07-28T20:52:03.671Z,100731.94
2022-07-28T20:54:32.476Z,100732.77
2022-07-28T20:57:00.555Z,100736.95
2022-07-28T20:59:28.474Z,100739.23
2022-07-28T21:01:56.908Z,100740.19
2022-07-28T21:04:26.663Z,100740.52
2022-07-28T21:07:01.740Z,100741.63
2022-07-28T21:09:30.308Z,100748.73
2022-07-28T21:11:58.215Z,100752.94
2022-07-28T21:14:26.204Z,100753.84
2022-07-28T21:16:55.114Z,100756.58
2022-07-28T21:19:23.081Z,100761.89
2022-07-28T21:21:51.270Z,100763.86
2022-07-28T21:24:19.403Z,100764.55
2022-07-28T21:26:49.886Z,100766.23
2022-07-28T21:32:04.100Z,100777.52
2022-07-28T21:34:34.989Z,100773.20
2022-07-28T21:37:06.915Z,100779.30
2022-07-28T21:39:36.045Z,100779.10
2022-07-28T21:42:07.780Z,100778.03
2022-07-28T21:44:37.607Z,100776.38
2022-07-28T21:47:05.912Z,100777.15
2022-07-28T21:49:34.074Z,100776.94
2022-07-28T21:52:02.091Z,100777.41
2022-07-28T21:54:30.305Z,100775.96
2022-07-28T21:56:58.306Z,100777.30
2022-07-28T21:59:26.300Z,100784.85
2022-07-28T22:01:54.233Z,100791.48
2022-07-28T22:04:22.389Z,100795.25
2022-07-28T22:06:50.839Z,100796.13
2022-07-28T22:09:18.746Z,100809.73
2022-07-28T22:11:46.590Z,100810.73
2022-07-28T22:14:14.750Z,100807.95
2022-07-28T22:16:42.885Z,100808.54
2022-07-28T22:19:12.358Z,100808.88
2022-07-28T22:21:40.275Z,100812.30
2022-07-28T22:24:08.916Z,100808.69
2022-07-28T22:26:37.061Z,100808.11
2022-07-28T22:29:05.286Z,100808.46
2022-07-28T22:31:33.273Z,100809.41
2022-07-28T22:34:01.408Z,100810.02
2022-07-28T22:36:29.416Z,100815.33
2022-07-28T22:38:57.412Z,100819.72
2022-07-28T22:41:25.579Z,100818.21
2022-07-28T22:43:54.686Z,100817.20
2022-07-28T22:46:22.808Z,100821.56
2022-07-28T22:48:51.040Z,100822.05
2022-07-28T22:51:19.089Z,100824.51
2022-07-28T22:53:46.980Z,100829.78
2022-07-28T22:56:15.009Z,100832.48
2022-07-28T22:58:43.180Z,100837.67
2022-07-28T23:01:11.370Z,100842.42
2022-07-28T23:09:26.981Z,100837.90
2022-07-28T23:11:55.599Z,100840.52
2022-07-28T23:14:24.333Z,100837.92
2022-07-28T23:16:52.127Z,100833.89
2022-07-28T23:19:20.042Z,100834.17
2022-07-28T23:21:48.036Z,100832.11
2022-07-28T23:24:16.462Z,100830.13
2022-07-28T23:26:44.989Z,100832.06
2022-07-28T23:29:12.946Z,100837.20
2022-07-28T23:31:40.978Z,100844.35
2022-07-28T23:34:09.157Z,100844.23
2022-07-28T23:36:37.104Z,100844.14
2022-07-28T23:39:05.021Z,100847.43
2022-07-28T23:41:32.943Z,100841.39
2022-07-28T23:44:00.857Z,100848.77
2022-07-28T23:46:28.905Z,100848.16
2022-07-28T23:48:56.847Z,100844.98
2022-07-28T23:51:46.894Z,100845.85
2022-07-28T23:54:14.581Z,100844.89
2022-07-28T23:56:43.612Z,100844.98
2022-07-28T23:59:13.992Z,100845.38
